Warning: Javascript must be enabled to use all the features on this page!


Page Loading - Please Wait...

* We've detected you're using a mobile device. Find our Next Generation Station Page here.
Click to hideNews Bulletins

Peak Streamflow for the Nation

USGS 11462500 RUSSIAN R NR HOPLAND CA

Mendocino County, California
Hydrologic Unit Code 18010110
Latitude  39°01'36", Longitude 123°07'46" NAD27
Drainage area 362  square miles
Gage datum 497.61 feet above NGVD29
Output formats
Table
Graph
Tab-separated file
peakfq (watstore) format
Reselect output format
Water
Year
Date Gage
Height
(feet)
Stream-
flow
(cfs)
1938 1937-12 30.00Bd  
1940 1940-02-28 24.90 34,100
1941 1941-02-11 21.60 21,700
1942 1942-02-06 22.80 24,500
1943 1943-01-21 26.12 34,000
1944 1944-03-04 16.49 12,300
1945 1945-02-02 14.69 9,470
1946 1945-12-27 24.40 30,100
1947 1947-03-10 15.35 10,400
1948 1948-03-23 16.30 11,600
1949 1949-02-11 15.17 9,730
1950 1950-03-24 14.67 8,980
1951 1951-01-21 25.66 33,900
1952 1951-12-28 20.70 20,800
1953 1952-12-07 22.10 24,100
1954 1954-01-17 23.34 27,400
1955 1954-12-05 11.82 5,820
1956 1955-12-22 27.00 45,000
1957 1957-02-24 16.12 13,400
1958 1958-02-24 22.85 32,300
1959 1959-02-16 14.46 10,4006
1960 1960-02-08 19.65 22,5006
1961 1961-02-11 13.89 9,3206
1962 1962-02-13 16.65 14,5006
1963 1963-01-31 19.24 21,2006
1964 1964-01-20 17.72 17,0006
1965 1964-12-22 26.01 41,5006
1966 1966-01-05 21.31 27,1006
1967 1967-01-21 16.71 15,5006
1968 1968-01-14 14.47 10,9006
1969 1968-12-23 17.64 17,6006
1970 1970-01-24 21.58 27,8006
1971 1971-01-16 18.76 20,0006
1972 1972-01-23 12.17 6,7606
1973 1973-01-12 16.55 14,0006
1974 1974-01-16 25.50 39,7006
1975 1975-02-12 18.70 21,5006
1976 1976-02-29 9.75 4,0706
1977 1977-03-16 5.31 2256
1978 1978-01-16 17.23 17,9006
1979 1979-01-11 16.83 16,9006
1980 1980-01-13 19.90 23,5006
1981 1981-01-28 12.41 7,8506
1982 1982-02-16 18.91 21,0006
1983 1983-01-26 20.82 26,2006
1984 1983-11-17 15.68 13,6006
1985 1985-02-08 14.73 12,4006
1986 1986-02-17 22.96 32,9006
1987 1987-02-13 10.12 5,7706
1988 1988-01-04 14.04 11,3006
1989 1989-03-18 13.10 9,3206
1990 1990-01-07 11.54 7,5606
1991 1991-03-23 10.37 6,0806
1992 1992-02-14 12.46 8,8406
1993 1993-01-20 21.55 28,3006
1994 1994-02-17 9.85 5,4506
1995 1995-01-09 22.40 27,6006
1996 1996-01-25 16.32 16,5006
1997 1996-12-31 18.84 20,0006
1998 1998-02-06 16.57 15,9006
1999 1999-02-09 14.63 12,8006
2000 2000-02-14 13.07 10,5006
2001 2001-03-04 14.22 12,2006
2002 2002-01-02 13.25 10,8006
2003 2002-12-16 16.92 16,5006
2004 2004-02-17 18.71 19,8006
2005 2004-12-08 14.29 12,3006
2006 2005-12-31 26.81 35,6006
2007 2007-02-10 12.53 9,0506
2008 2008-01-04 16.55 15,0006
2009 2009-02-23 9.89 5,7806
2010 2010-01-20 16.28 14,6006
2011 2010-12-29 16.83 11,7006
2012 2012-03-27 15.64 10,4006
2013 2012-12-02 19.63 15,0006
2014 2014-03-29 12.59 6,9006
2015 2014-12-11 19.48 13,0006
2016 2016-01-18 17.55 10,8006
2017 2017-01-11 22.25 16,6006
2018 2018-04-06 16.26 9,1606
2019 2019-02-27 22.95 22,2006
?
  Peak Gage-Height Qualification Codes.
?
  Peak Streamflow Qualification Codes.